createdAt,value
2023-03-22T00:00:30.059Z,96021.78
2023-03-22T00:02:58.217Z,96024.78
2023-03-22T00:05:26.410Z,96019.88
2023-03-22T00:07:57.940Z,96031.94
2023-03-22T00:10:27.544Z,96013.03
2023-03-22T00:13:03.275Z,96017.97
2023-03-22T00:15:34.833Z,96015.09
2023-03-22T00:18:06.039Z,96014.63
2023-03-22T00:20:38.367Z,96026.06
2023-03-22T00:23:06.636Z,96022.75
2023-03-22T00:25:34.664Z,96017.97
2023-03-22T00:28:02.599Z,96026.38
2023-03-22T00:30:30.428Z,96031.94
2023-03-22T00:32:59.716Z,96029.06
2023-03-22T00:35:27.642Z,96017.97
2023-03-22T00:37:56.090Z,96019.56
2023-03-22T00:40:24.805Z,96017.34
2023-03-22T00:42:52.611Z,96024.94
2023-03-22T00:45:20.624Z,96019.88
2023-03-22T00:47:48.448Z,96019.09
2023-03-22T00:50:17.980Z,96007.94
2023-03-22T00:52:46.025Z,96000.97
2023-03-22T00:55:13.827Z,96007.16
2023-03-22T00:57:41.643Z,96003.03
2023-03-22T01:00:13.627Z,96014.13
2023-03-22T01:02:42.505Z,96019.22
2023-03-22T01:05:15.842Z,96035.72
2023-03-22T01:07:46.150Z,96026.50
2023-03-22T01:10:14.181Z,96027.66
2023-03-22T01:12:42.064Z,96023.06
2023-03-22T01:15:10.919Z,96021.13
2023-03-22T01:17:38.808Z,96020.03
2023-03-22T01:20:09.325Z,96007.47
2023-03-22T01:22:37.143Z,96002.56
2023-03-22T01:25:07.472Z,96010.19
2023-03-22T01:27:35.274Z,96003.69
2023-03-22T01:30:03.563Z,95998.91
2023-03-22T01:32:31.378Z,95991.41
2023-03-22T01:34:59.203Z,95990.31
2023-03-22T01:37:29.935Z,95997.47
2023-03-22T01:39:58.017Z,95986.31
2023-03-22T01:42:28.449Z,95989.00
2023-03-22T01:45:35.653Z,95981.53
2023-03-22T01:48:07.637Z,95985.19
2023-03-22T01:50:42.514Z,95982.28
2023-03-22T01:53:13.683Z,95982.88
2023-03-22T01:55:42.593Z,95984.00
2023-03-22T01:58:18.195Z,95986.66
2023-03-22T02:00:54.297Z,95975.19
2023-03-22T02:03:53.588Z,95983.00
2023-03-22T02:06:22.580Z,95983.72
2023-03-22T02:08:58.356Z,95978.19
2023-03-22T02:11:32.082Z,95973.91
2023-03-22T02:14:34.802Z,95961.53
2023-03-22T02:17:46.299Z,95974.91
2023-03-22T02:21:06.528Z,95976.31
2023-03-22T02:24:29.042Z,95973.63
2023-03-22T02:27:16.137Z,95976.91
2023-03-22T02:29:47.850Z,95973.56
2023-03-22T02:32:48.779Z,95972.25
2023-03-22T02:35:47.471Z,95955.94
2023-03-22T02:39:02.048Z,95956.59
2023-03-22T02:41:43.813Z,95947.72
2023-03-22T02:44:22.540Z,95953.63
2023-03-22T02:47:01.492Z,95955.94
2023-03-22T02:49:36.269Z,95965.16
2023-03-22T02:52:17.503Z,95961.47
2023-03-22T02:54:53.980Z,95953.66
2023-03-22T02:57:26.438Z,95950.97
2023-03-22T02:59:59.329Z,95954.09
2023-03-22T03:02:29.805Z,95956.44
2023-03-22T03:04:58.941Z,95954.97
2023-03-22T03:07:30.609Z,95946.41
2023-03-22T03:09:59.891Z,95944.88
2023-03-22T03:12:30.230Z,95949.91
2023-03-22T03:14:58.534Z,95942.25
2023-03-22T03:17:39.925Z,95947.28
2023-03-22T03:20:24.214Z,95938.22
2023-03-22T03:23:06.040Z,95942.72
2023-03-22T03:25:43.420Z,95949.41
2023-03-22T03:28:22.883Z,95954.41
2023-03-22T03:30:57.901Z,95956.13
2023-03-22T03:33:28.874Z,95951.84
2023-03-22T03:36:01.893Z,95958.84
2023-03-22T03:38:32.692Z,95956.56
2023-03-22T03:41:04.810Z,95956.25
2023-03-22T03:43:33.453Z,95955.66
2023-03-22T03:46:01.820Z,95965.09
2023-03-22T03:48:31.470Z,95965.19
2023-03-22T03:51:02.182Z,95967.06
2023-03-22T03:53:31.121Z,95971.13
2023-03-22T03:55:58.954Z,95969.25
2023-03-22T03:58:31.508Z,95967.31
2023-03-22T04:00:59.349Z,95966.88
2023-03-22T04:03:50.616Z,95960.50
2023-03-22T04:06:35.654Z,95957.91
2023-03-22T04:09:10.066Z,95955.13
2023-03-22T04:11:42.542Z,95953.72
2023-03-22T04:14:12.015Z,95945.97
2023-03-22T04:16:39.933Z,95952.22
2023-03-22T04:19:10.961Z,95949.69
2023-03-22T04:21:38.835Z,95944.38
2023-03-22T04:24:09.068Z,95948.28
2023-03-22T04:26:40.558Z,95943.94
2023-03-22T04:29:17.216Z,95948.94
2023-03-22T04:31:49.871Z,95944.75
2023-03-22T04:34:40.655Z,95946.63
2023-03-22T04:37:14.728Z,95944.59
2023-03-22T04:40:01.850Z,95941.69
2023-03-22T04:42:37.646Z,95945.53
2023-03-22T04:45:29.149Z,95944.44
2023-03-22T04:48:01.032Z,95948.78
2023-03-22T04:50:29.195Z,95946.78
2023-03-22T04:53:01.132Z,95950.50
2023-03-22T04:55:30.030Z,95952.13
2023-03-22T04:57:57.822Z,95955.44
2023-03-22T05:00:30.361Z,95957.59
2023-03-22T05:02:59.206Z,95953.84
2023-03-22T05:05:39.608Z,95952.84
2023-03-22T05:08:07.763Z,95956.59
2023-03-22T05:10:35.659Z,95954.66
2023-03-22T05:13:04.097Z,95954.94
2023-03-22T05:15:35.146Z,95959.84
2023-03-22T05:18:05.191Z,95955.84
2023-03-22T05:20:33.037Z,95963.34
2023-03-22T05:23:21.122Z,95962.75
2023-03-22T05:25:54.255Z,95967.34
2023-03-22T05:28:22.872Z,95967.59
2023-03-22T05:31:11.884Z,95968.91
2023-03-22T05:33:46.630Z,95967.25
2023-03-22T05:36:16.826Z,95974.22
2023-03-22T05:39:03.242Z,95970.09
2023-03-22T05:41:31.731Z,95962.25
2023-03-22T05:43:59.559Z,95963.81
2023-03-22T05:46:28.899Z,95966.41
2023-03-22T05:49:26.777Z,95967.94
2023-03-22T05:51:55.286Z,95973.31
2023-03-22T05:54:26.524Z,95971.19
2023-03-22T05:56:55.802Z,95983.25
2023-03-22T05:59:24.248Z,95981.94
2023-03-22T06:01:53.806Z,95974.91
2023-03-22T06:04:24.624Z,95973.59
2023-03-22T06:07:13.716Z,95976.78
2023-03-22T06:10:05.260Z,95979.75
2023-03-22T06:12:33.615Z,95981.88
2023-03-22T06:15:10.435Z,95966.53
2023-03-22T06:17:39.754Z,95970.34
2023-03-22T06:20:14.196Z,95960.44
2023-03-22T06:22:47.559Z,95967.31
2023-03-22T06:25:16.687Z,95967.72
2023-03-22T06:27:46.998Z,95965.88
2023-03-22T06:30:15.242Z,95969.47
2023-03-22T06:33:05.036Z,95974.09
2023-03-22T06:35:36.902Z,95973.84
2023-03-22T06:38:06.058Z,95977.63
2023-03-22T06:40:35.728Z,95973.94
2023-03-22T06:43:06.817Z,95979.34
2023-03-22T06:45:36.642Z,95980.66
2023-03-22T06:48:07.811Z,95980.53
2023-03-22T06:50:52.260Z,95976.44
2023-03-22T06:53:26.567Z,95971.03
2023-03-22T06:55:55.448Z,95974.47
2023-03-22T06:58:25.705Z,95976.06
2023-03-22T07:00:53.806Z,95981.19
2023-03-22T07:03:25.329Z,95971.75
2023-03-22T07:06:02.249Z,95979.31
2023-03-22T07:08:32.428Z,95977.66
2023-03-22T07:11:00.301Z,95975.09
2023-03-22T07:13:28.463Z,95986.09
2023-03-22T07:16:02.763Z,95981.72
2023-03-22T07:18:41.918Z,95977.19
2023-03-22T07:21:10.428Z,95987.75
2023-03-22T07:23:40.948Z,95978.56
2023-03-22T07:26:13.429Z,95980.72
2023-03-22T07:28:44.726Z,95989.78
2023-03-22T07:31:15.073Z,95983.00
2023-03-22T07:34:04.978Z,95993.81
2023-03-22T07:36:39.481Z,95983.03
2023-03-22T07:39:10.709Z,95989.22
2023-03-22T07:41:43.405Z,95993.34
2023-03-22T07:44:33.733Z,95990.63
2023-03-22T07:47:37.755Z,95994.56
2023-03-22T07:50:21.747Z,96000.38
2023-03-22T07:52:54.623Z,95997.00
2023-03-22T07:55:22.605Z,95992.63
2023-03-22T07:57:51.188Z,95987.13
2023-03-22T08:00:19.915Z,95986.31
2023-03-22T08:02:57.506Z,95985.16
2023-03-22T08:05:58.874Z,95978.25
2023-03-22T08:08:27.397Z,95984.06
2023-03-22T08:10:55.269Z,95979.03
2023-03-22T08:13:23.106Z,95991.06
2023-03-22T08:15:50.954Z,96000.44
2023-03-22T08:18:20.767Z,96000.16
2023-03-22T08:20:56.254Z,95996.97
2023-03-22T08:23:38.523Z,95989.75
2023-03-22T08:26:27.786Z,95993.00
2023-03-22T08:28:58.413Z,95999.00
2023-03-22T08:31:26.482Z,95991.31
2023-03-22T08:33:55.006Z,95993.53
2023-03-22T08:36:24.494Z,95993.16
2023-03-22T08:39:04.174Z,95991.59
2023-03-22T08:41:44.531Z,95991.59
2023-03-22T08:44:12.462Z,95990.59
2023-03-22T08:46:41.306Z,95993.75
2023-03-22T08:49:10.439Z,95983.06
2023-03-22T08:51:49.260Z,95984.16
2023-03-22T08:54:21.599Z,95985.41
2023-03-22T08:57:03.214Z,95983.34
2023-03-22T08:59:40.946Z,95980.13
2023-03-22T09:02:30.906Z,95972.69
2023-03-22T09:04:59.949Z,95967.34
2023-03-22T09:07:30.413Z,95967.94
2023-03-22T09:10:20.863Z,95966.22
2023-03-22T09:12:52.407Z,95965.22
2023-03-22T09:15:20.770Z,95961.53
2023-03-22T09:18:02.052Z,95959.53
2023-03-22T09:20:30.132Z,95947.66
2023-03-22T09:22:59.365Z,95952.13
2023-03-22T09:25:27.454Z,95948.81
2023-03-22T09:27:55.585Z,95950.69
2023-03-22T09:30:23.639Z,95944.78
2023-03-22T09:32:51.596Z,95934.03
2023-03-22T09:35:21.922Z,95939.59
2023-03-22T09:38:01.383Z,95932.31
2023-03-22T09:40:31.550Z,95935.91
2023-03-22T09:43:03.368Z,95933.97
2023-03-22T09:45:38.475Z,95918.09
2023-03-22T09:48:12.836Z,95921.75
2023-03-22T09:50:46.691Z,95920.19
2023-03-22T09:53:17.516Z,95926.50
2023-03-22T09:55:51.826Z,95923.19
2023-03-22T09:58:26.752Z,95912.50
2023-03-22T10:01:01.124Z,95924.16
2023-03-22T10:03:53.556Z,95919.63
2023-03-22T10:06:23.543Z,95910.78
2023-03-22T10:09:00.971Z,95920.56
2023-03-22T10:11:41.031Z,95919.72
2023-03-22T10:14:23.472Z,95916.84
2023-03-22T10:16:55.318Z,95917.78
2023-03-22T10:19:28.385Z,95916.59
2023-03-22T10:21:58.601Z,95912.44
2023-03-22T10:24:32.774Z,95921.94
2023-03-22T10:27:01.167Z,95918.59
2023-03-22T10:29:35.346Z,95915.59
2023-03-22T10:32:16.516Z,95914.19
2023-03-22T10:34:44.912Z,95916.53
2023-03-22T10:37:17.110Z,95905.47
2023-03-22T10:39:49.865Z,95904.81
2023-03-22T10:42:21.677Z,95898.69
2023-03-22T10:44:51.927Z,95897.88
2023-03-22T10:47:30.587Z,95900.47
2023-03-22T10:50:01.951Z,95889.72
2023-03-22T10:52:39.589Z,95897.69
2023-03-22T10:55:11.633Z,95896.88
2023-03-22T10:57:41.027Z,95879.44
2023-03-22T11:00:11.552Z,95876.41
2023-03-22T11:02:48.025Z,95864.09
2023-03-22T11:05:23.875Z,95862.00
2023-03-22T11:07:51.998Z,95858.19
2023-03-22T11:10:28.436Z,95863.47
2023-03-22T11:13:11.841Z,95856.63
2023-03-22T11:15:56.449Z,95855.22
2023-03-22T11:18:25.976Z,95858.47
2023-03-22T11:20:59.033Z,95848.28
2023-03-22T11:23:28.507Z,95844.06
2023-03-22T11:26:06.089Z,95840.63
2023-03-22T11:28:36.521Z,95840.25
2023-03-22T11:31:07.702Z,95838.78
2023-03-22T11:33:36.796Z,95833.66
2023-03-22T11:36:15.884Z,95825.41
2023-03-22T11:38:45.594Z,95823.91
2023-03-22T11:41:23.246Z,95824.34
2023-03-22T11:43:54.370Z,95820.81
2023-03-22T11:46:23.152Z,95823.22
2023-03-22T11:48:53.387Z,95809.56
2023-03-22T11:51:30.896Z,95802.56
2023-03-22T11:54:07.644Z,95811.19
2023-03-22T11:56:42.493Z,95801.41
2023-03-22T11:59:15.309Z,95808.09
2023-03-22T12:01:49.471Z,95810.44
2023-03-22T12:04:22.493Z,95812.00
2023-03-22T12:06:53.689Z,95807.31
2023-03-22T12:09:29.440Z,95798.25
2023-03-22T12:12:02.713Z,95799.81
2023-03-22T12:14:36.710Z,95797.03
2023-03-22T12:17:11.511Z,95796.22
2023-03-22T12:19:49.725Z,95799.06
2023-03-22T12:22:21.989Z,95793.94
2023-03-22T12:24:49.950Z,95782.91
2023-03-22T12:27:24.116Z,95786.88
2023-03-22T12:29:56.031Z,95786.06
2023-03-22T12:32:28.394Z,95792.78
2023-03-22T12:35:09.259Z,95792.34
2023-03-22T12:37:47.341Z,95795.91
2023-03-22T12:40:21.666Z,95789.94
2023-03-22T12:43:00.382Z,95787.97
2023-03-22T12:45:31.281Z,95778.63
2023-03-22T12:48:07.278Z,95780.97
2023-03-22T12:50:40.268Z,95768.81
2023-03-22T12:53:13.840Z,95772.75
2023-03-22T12:55:42.473Z,95769.56
2023-03-22T12:58:16.105Z,95768.78
2023-03-22T13:00:48.756Z,95767.59
2023-03-22T13:03:26.860Z,95760.97
2023-03-22T13:06:04.599Z,95755.84
2023-03-22T13:09:12.980Z,95747.94
2023-03-22T13:11:41.136Z,95758.53
2023-03-22T13:14:13.354Z,95763.28
2023-03-22T13:17:00.742Z,95749.91
2023-03-22T13:19:33.596Z,95753.47
2023-03-22T13:22:22.507Z,95750.72
2023-03-22T13:25:16.705Z,95742.44
2023-03-22T13:27:53.766Z,95734.59
2023-03-22T13:30:28.127Z,95734.66
2023-03-22T13:33:03.462Z,95741.72
2023-03-22T13:35:44.096Z,95732.25
2023-03-22T13:38:21.059Z,95731.78
2023-03-22T13:40:55.518Z,95722.03
2023-03-22T13:43:34.217Z,95725.03
2023-03-22T13:46:44.594Z,95716.59
2023-03-22T13:49:28.912Z,95716.88
2023-03-22T13:51:59.883Z,95721.16
2023-03-22T13:54:33.658Z,95697.66
2023-03-22T13:57:01.795Z,95714.84
2023-03-22T13:59:33.863Z,95703.13
2023-03-22T14:02:15.685Z,95703.09
2023-03-22T14:04:47.522Z,95701.22
2023-03-22T14:07:23.787Z,95708.69
2023-03-22T14:09:54.356Z,95693.34
2023-03-22T14:12:26.650Z,95703.63
2023-03-22T14:14:58.172Z,95701.25
2023-03-22T14:17:38.852Z,95699.69
2023-03-22T14:20:10.444Z,95693.03
